Time;durP1;ratioP1;P1;durP2;ratioP2;P2;SDS_P1;SDS_P2;PMS_P1;PMS_P2;Temp;Humidity;BMP_temperature;BMP_pressure;BME280_temperature;BME280_humidity;BME280_pressure;Samples;Min_cycle;Max_cycle;Signal;HPM_P1;HPM_P2
2021/12/09 00:00:18;;;;;;;28.92;14.95;;;;;;;2.61;74.22;98467.41;5389309;26;34623;-93
2021/12/09 00:02:47;;;;;;;28.87;12.52;;;;;;;2.43;74.83;98458.72;5387253;26;34753;-94
2021/12/09 00:05:17;;;;;;;27.58;12.23;;;;;;;2.54;74.43;98463.94;5387993;26;34307;-93
2021/12/09 00:07:49;;;;;;;35.05;13.68;;;;;;;2.15;75.48;98452.50;5388262;26;33362;-93
2021/12/09 00:10:18;;;;;;;28.92;13.35;;;;;;;2.41;75.47;98455.28;5353019;26;34658;-93
2021/12/09 00:12:46;;;;;;;29.42;12.98;;;;;;;2.74;74.19;98474.34;5369259;26;35534;-93
2021/12/09 00:15:14;;;;;;;30.27;12.00;;;;;;;2.47;74.32;98469.87;5370289;26;35057;-94
2021/12/09 00:17:43;;;;;;;30.35;12.45;;;;;;;2.64;74.21;98480.28;5351470;26;33141;-92
2021/12/09 00:20:13;;;;;;;25.20;12.73;;;;;;;2.66;73.86;98478.56;5390389;26;34551;-94
2021/12/09 00:22:41;;;;;;;32.22;13.05;;;;;;;2.25;75.21;98469.69;5389774;26;34596;-94
2021/12/09 00:25:10;;;;;;;35.88;13.55;;;;;;;2.26;75.06;98480.84;5370198;26;35172;-94
2021/12/09 00:27:38;;;;;;;28.77;14.07;;;;;;;2.28;75.38;98479.16;5369558;26;31916;-95
2021/12/09 00:30:06;;;;;;;27.27;13.60;;;;;;;2.76;73.94;98476.94;5351353;26;32536;-95
2021/12/09 00:32:40;;;;;;;28.33;12.45;;;;;;;2.58;74.50;98454.56;5388493;26;34838;-93
2021/12/09 00:35:09;;;;;;;30.67;13.57;;;;;;;2.70;74.08;98441.78;5388892;26;34396;-94
2021/12/09 00:37:41;;;;;;;30.08;14.50;;;;;;;2.97;72.88;98447.94;5369814;26;34474;-93
2021/12/09 00:40:09;;;;;;;31.83;14.30;;;;;;;2.40;75.19;98447.53;5389148;26;34003;-93
2021/12/09 00:42:37;;;;;;;34.45;14.48;;;;;;;1.92;76.65;98433.47;5390040;26;35017;-95
2021/12/09 00:45:06;;;;;;;29.25;13.60;;;;;;;2.40;74.90;98438.16;5390200;26;34571;-94
2021/12/09 00:47:39;;;;;;;30.98;12.30;;;;;;;1.90;76.25;98428.31;5388274;26;34011;-94
2021/12/09 00:50:08;;;;;;;28.10;13.65;;;;;;;2.46;74.89;98417.63;5390762;26;34627;-93
2021/12/09 00:52:36;;;;;;;25.52;13.15;;;;;;;2.21;76.14;98408.03;5388133;26;35463;-94
2021/12/09 00:55:06;;;;;;;25.60;14.00;;;;;;;2.11;76.18;98411.38;5369763;26;32853;-93
2021/12/09 00:57:35;;;;;;;32.58;15.20;;;;;;;2.53;74.59;98403.13;5351044;26;32470;-94
2021/12/09 01:00:10;;;;;;;29.80;13.82;;;;;;;2.51;74.56;98403.97;5352296;26;33457;-94
2021/12/09 01:02:38;;;;;;;24.58;11.88;;;;;;;2.18;75.88;98396.03;5369531;26;34865;-94
2021/12/09 01:05:08;;;;;;;26.17;13.15;;;;;;;2.00;76.49;98391.59;5369798;26;34814;-93
2021/12/09 01:07:38;;;;;;;29.12;13.38;;;;;;;2.04;76.53;98406.19;5389718;26;33110;-95
2021/12/09 01:10:09;;;;;;;30.88;14.87;;;;;;;2.16;75.67;98412.28;5369995;26;32527;-94
2021/12/09 01:12:37;;;;;;;36.78;14.20;;;;;;;2.25;75.83;98420.91;5369579;26;35778;-94
2021/12/09 01:15:08;;;;;;;31.75;13.68;;;;;;;2.06;76.27;98422.44;5390568;26;34362;-93
2021/12/09 01:17:36;;;;;;;29.87;13.07;;;;;;;1.90;77.27;98421.47;5369426;26;33708;-95
2021/12/09 01:20:05;;;;;;;37.33;14.85;;;;;;;1.78;77.34;98425.63;5388671;26;34723;-93
2021/12/09 01:22:39;;;;;;;39.05;16.80;;;;;;;2.04;76.75;98418.16;5369128;26;34881;-93
2021/12/09 01:25:11;;;;;;;30.42;13.20;;;;;;;1.58;78.25;98430.56;5390282;26;34473;-93
2021/12/09 01:27:42;;;;;;;29.52;13.00;;;;;;;2.36;75.64;98436.38;5369388;26;34327;-94
2021/12/09 01:30:15;;;;;;;32.83;15.30;;;;;;;1.88;77.37;98422.31;5389748;26;33926;-95
2021/12/09 01:32:50;;;;;;;34.25;14.87;;;;;;;1.91;76.90;98412.06;5389707;26;35996;-93
2021/12/09 01:35:27;;;;;;;27.98;13.93;;;;;;;2.04;76.36;98402.75;5388760;26;34487;-93
2021/12/09 01:37:58;;;;;;;35.10;14.10;;;;;;;1.78;77.20;98389.69;5388202;26;33547;-95
2021/12/09 01:40:28;;;;;;;31.83;13.90;;;;;;;1.78;77.44;98397.41;5369777;26;32749;-94
2021/12/09 01:42:57;;;;;;;33.15;13.60;;;;;;;2.11;75.85;98385.69;5369687;26;35018;-93
2021/12/09 01:45:26;;;;;;;32.90;12.60;;;;;;;1.67;77.64;98372.50;5390007;26;34428;-94
2021/12/09 01:47:54;;;;;;;30.30;14.32;;;;;;;2.09;75.88;98366.00;5369317;26;32844;-94
2021/12/09 01:50:23;;;;;;;35.70;14.18;;;;;;;1.76;77.47;98366.56;5390088;26;34859;-96
2021/12/09 01:52:51;;;;;;;29.23;13.52;;;;;;;2.02;76.27;98361.66;5389654;26;34650;-94
2021/12/09 01:55:20;;;;;;;30.02;14.30;;;;;;;1.89;76.52;98365.00;5369566;26;33118;-95
2021/12/09 01:57:50;;;;;;;25.75;12.70;;;;;;;1.95;76.41;98347.06;5332367;26;32495;-94
2021/12/09 02:00:24;;;;;;;26.60;13.02;;;;;;;1.94;76.49;98342.78;5369805;26;34287;-94
2021/12/09 02:02:52;;;;;;;31.48;12.27;;;;;;;2.33;74.80;98353.31;5389493;26;34630;-93
2021/12/09 02:05:27;;;;;;;26.87;13.02;;;;;;;1.47;77.82;98351.78;5390473;26;35133;-95
2021/12/09 02:07:55;;;;;;;35.33;14.65;;;;;;;1.82;77.12;98338.41;5369333;26;33337;-94
2021/12/09 02:10:24;;;;;;;33.22;14.52;;;;;;;1.64;77.85;98351.94;5390380;26;33896;-95
2021/12/09 02:12:53;;;;;;;34.53;13.52;;;;;;;1.54;77.59;98332.19;5369396;26;34923;-92
2021/12/09 02:15:22;;;;;;;37.05;15.25;;;;;;;1.78;77.41;98315.25;5370190;26;33016;-94
2021/12/09 02:17:50;;;;;;;32.88;14.27;;;;;;;1.76;77.67;98301.56;5369622;26;32295;-93
2021/12/09 02:20:19;;;;;;;33.08;13.32;;;;;;;1.38;78.76;98307.22;5370177;26;34338;-94
2021/12/09 02:22:48;;;;;;;29.90;12.15;;;;;;;1.77;77.57;98327.25;5369538;26;35052;-94
2021/12/09 02:25:17;;;;;;;32.42;14.48;;;;;;;1.72;77.29;98333.19;5389805;26;35269;-95
2021/12/09 02:27:46;;;;;;;25.33;13.55;;;;;;;2.01;76.00;98335.97;5387917;26;33469;-93
2021/12/09 02:30:14;;;;;;;31.10;11.70;;;;;;;2.09;75.67;98350.59;5369526;26;33961;-94
2021/12/09 02:32:46;;;;;;;27.75;12.05;;;;;;;1.48;77.79;98339.81;5389338;26;34988;-94
2021/12/09 02:35:14;;;;;;;26.42;11.77;;;;;;;1.63;77.73;98324.56;5388654;26;34564;-93
2021/12/09 02:37:44;;;;;;;31.20;13.65;;;;;;;1.68;77.28;98317.75;5369206;26;32550;-94
2021/12/09 02:40:12;;;;;;;31.17;12.75;;;;;;;1.73;77.51;98314.38;5369623;26;33981;-94
2021/12/09 02:42:41;;;;;;;33.45;12.75;;;;;;;1.18;79.12;98318.16;5368444;26;34650;-93
2021/12/09 02:45:10;;;;;;;27.42;11.98;;;;;;;1.74;77.04;98303.25;5388531;26;34299;-94
2021/12/09 02:47:38;;;;;;;27.85;12.32;;;;;;;1.43;78.54;98332.09;5369238;26;33545;-93
2021/12/09 02:50:07;;;;;;;31.52;11.35;;;;;;;1.66;77.64;98362.19;5389465;26;33578;-94
2021/12/09 02:52:36;;;;;;;22.15;10.82;;;;;;;1.92;76.55;98353.88;5368858;26;34189;-93
2021/12/09 02:55:05;;;;;;;26.55;9.63;;;;;;;1.66;77.00;98342.56;5350620;26;34863;-95
2021/12/09 02:57:33;;;;;;;26.12;11.60;;;;;;;1.47;78.51;98322.72;5369494;26;34329;-94
2021/12/09 03:00:01;;;;;;;20.17;11.27;;;;;;;1.42;78.18;98306.41;5389937;26;33554;-93
2021/12/09 03:02:29;;;;;;;21.55;10.65;;;;;;;1.38;78.48;98320.03;5389289;26;35777;-94
2021/12/09 03:04:59;;;;;;;32.15;11.88;;;;;;;1.67;77.62;98322.88;5388331;26;34356;-94
2021/12/09 03:07:32;;;;;;;22.33;11.27;;;;;;;1.32;79.11;98314.03;5388189;26;34399;-93
2021/12/09 03:10:09;;;;;;;28.33;12.00;;;;;;;1.61;78.31;98303.16;5369755;26;34389;-94
2021/12/09 03:12:42;;;;;;;25.12;12.10;;;;;;;1.33;79.18;98294.37;5387770;26;34829;-93
2021/12/09 03:15:10;;;;;;;29.42;12.25;;;;;;;1.75;77.67;98316.13;5388444;26;34456;-94
2021/12/09 03:17:40;;;;;;;20.52;10.75;;;;;;;1.57;78.33;98321.06;5389050;26;33405;-95
2021/12/09 03:20:09;;;;;;;23.50;8.70;;;;;;;1.36;79.23;98330.31;5389625;26;34699;-93
2021/12/09 03:22:39;;;;;;;18.83;8.95;;;;;;;2.00;76.90;98349.69;5369219;26;34964;-93
2021/12/09 03:25:10;;;;;;;20.25;10.20;;;;;;;1.65;77.87;98340.81;5387512;26;34384;-95
2021/12/09 03:27:39;;;;;;;22.45;9.38;;;;;;;1.51;78.79;98339.84;5369347;26;33529;-94
2021/12/09 03:30:09;;;;;;;23.10;9.48;;;;;;;1.58;78.53;98335.62;5389035;26;34543;-93
2021/12/09 03:32:37;;;;;;;20.80;9.40;;;;;;;1.79;77.98;98322.13;5369207;26;34967;-94
2021/12/09 03:35:07;;;;;;;19.30;8.90;;;;;;;1.73;78.10;98310.13;5369849;26;34334;-93
2021/12/09 03:37:36;;;;;;;24.95;9.95;;;;;;;1.82;77.53;98297.34;5369028;26;33532;-93
2021/12/09 03:40:06;;;;;;;25.75;11.02;;;;;;;1.76;77.92;98314.41;5369621;26;33918;-94
2021/12/09 03:42:34;;;;;;;21.60;10.35;;;;;;;1.61;78.88;98318.56;5369231;26;34815;-93
2021/12/09 03:45:04;;;;;;;23.30;10.13;;;;;;;1.41;79.39;98317.50;5370642;26;34432;-93
2021/12/09 03:47:32;;;;;;;21.83;10.68;;;;;;;1.92;77.92;98338.47;5370071;26;33276;-93
2021/12/09 03:50:01;;;;;;;22.58;10.80;;;;;;;1.94;77.50;98342.78;5370821;26;33774;-92
2021/12/09 03:52:29;;;;;;;25.75;11.05;;;;;;;1.22;80.17;98327.59;5388479;26;35402;-94
2021/12/09 03:54:58;;;;;;;25.05;10.35;;;;;;;1.36;79.74;98339.69;5370196;26;33410;-92
2021/12/09 03:57:25;;;;;;;21.50;9.90;;;;;;;1.64;79.02;98331.44;5349166;26;32510;-93
2021/12/09 03:59:53;;;;;;;21.15;10.63;;;;;;;1.62;78.76;98340.78;5389101;26;33556;-92
2021/12/09 04:02:22;;;;;;;20.70;10.70;;;;;;;2.06;77.53;98345.41;5350717;26;34917;-92
2021/12/09 04:04:51;;;;;;;21.25;9.40;;;;;;;2.19;76.65;98350.62;5370214;26;35074;-92
2021/12/09 04:07:18;;;;;;;25.83;9.57;;;;;;;2.15;76.58;98329.22;5369844;26;33423;-92
2021/12/09 04:09:46;;;;;;;27.00;11.30;;;;;;;1.98;76.96;98326.56;5370035;26;33772;-92
2021/12/09 04:12:14;;;;;;;21.23;8.57;;;;;;;2.05;76.84;98320.59;5369531;26;34917;-93
2021/12/09 04:14:42;;;;;;;22.00;10.80;;;;;;;2.23;76.26;98321.59;5389110;26;34307;-91
2021/12/09 04:17:10;;;;;;;20.75;10.85;;;;;;;1.84;77.85;98318.75;5369641;26;33903;-92
2021/12/09 04:19:46;;;;;;;20.12;8.98;;;;;;;1.76;77.62;98317.81;5388675;26;33632;-92
2021/12/09 04:22:19;;;;;;;26.48;10.48;;;;;;;1.89;77.53;98318.78;5371203;26;35778;-91
2021/12/09 04:24:49;;;;;;;18.73;8.88;;;;;;;1.97;76.77;98327.38;5370208;26;34771;-91
2021/12/09 04:27:18;;;;;;;20.58;10.20;;;;;;;2.07;76.98;98336.88;5388070;26;33194;-92
2021/12/09 04:29:46;;;;;;;21.52;10.82;;;;;;;2.13;76.70;98333.50;5370087;26;33495;-91
2021/12/09 04:32:15;;;;;;;16.25;10.15;;;;;;;2.22;76.37;98327.56;5369508;26;35691;-91
2021/12/09 04:34:44;;;;;;;22.02;10.75;;;;;;;2.50;74.97;98320.00;5369426;26;34421;-92
2021/12/09 04:37:13;;;;;;;24.65;9.30;;;;;;;2.13;76.31;98322.38;5369652;26;33207;-93
2021/12/09 04:39:42;;;;;;;14.13;7.82;;;;;;;1.94;77.20;98309.41;5390195;26;33600;-95
2021/12/09 04:42:09;;;;;;;22.75;10.50;;;;;;;2.02;77.26;98312.03;5369035;26;34240;-93
2021/12/09 04:44:37;;;;;;;22.23;9.98;;;;;;;1.85;77.72;98314.47;5388008;26;35094;-94
2021/12/09 04:47:06;;;;;;;19.73;10.02;;;;;;;2.20;76.42;98306.16;5369299;26;33188;-92
2021/12/09 04:49:34;;;;;;;16.65;8.90;;;;;;;1.56;78.67;98302.25;5389938;26;34372;-94
2021/12/09 04:52:04;;;;;;;16.45;8.50;;;;;;;1.75;78.19;98313.56;5387451;26;35182;-95
2021/12/09 04:54:32;;;;;;;24.05;11.07;;;;;;;2.28;76.43;98309.63;5369129;26;33697;-93
2021/12/09 04:57:00;;;;;;;22.30;9.95;;;;;;;1.83;77.38;98306.75;5388432;26;33544;-96
2021/12/09 04:59:28;;;;;;;21.23;9.32;;;;;;;2.22;76.04;98309.56;5351018;26;32315;-93
2021/12/09 05:01:57;;;;;;;17.87;9.10;;;;;;;2.15;76.34;98307.81;5350922;26;33603;-94
2021/12/09 05:04:25;;;;;;;11.95;6.37;;;;;;;2.37;75.29;98301.97;5389779;26;34318;-93
2021/12/09 05:06:53;;;;;;;22.77;10.32;;;;;;;2.44;74.88;98302.88;5389868;26;33489;-93
2021/12/09 05:09:23;;;;;;;17.83;8.48;;;;;;;2.17;75.71;98309.56;5388081;26;33673;-95
2021/12/09 05:11:51;;;;;;;17.00;8.90;;;;;;;2.23;75.89;98311.31;5389679;26;34767;-95
2021/12/09 05:14:21;;;;;;;18.50;8.93;;;;;;;1.93;76.55;98310.25;5372037;26;34332;-93
2021/12/09 05:16:53;;;;;;;27.30;10.77;;;;;;;1.64;77.88;98318.59;5397617;26;34270;-93
2021/12/09 05:19:21;;;;;;;23.08;9.98;;;;;;;1.92;77.73;98326.50;5397344;26;33841;-92
2021/12/09 05:21:53;;;;;;;14.82;8.32;;;;;;;2.20;76.10;98319.84;5396276;26;35109;-92
2021/12/09 05:24:21;;;;;;;23.65;9.00;;;;;;;2.55;74.93;98313.19;5392320;26;34357;-92
2021/12/09 05:26:53;;;;;;;17.02;8.57;;;;;;;2.34;74.89;98309.66;5373832;26;34228;-93
2021/12/09 05:29:36;;;;;;;15.50;8.35;;;;;;;2.50;74.64;98305.44;5399760;26;33453;-91
2021/12/09 05:32:14;;;;;;;20.33;9.70;;;;;;;2.42;74.87;98308.00;5400815;26;35131;-92
2021/12/09 05:34:48;;;;;;;15.35;7.80;;;;;;;2.51;74.57;98298.63;5357679;26;34140;-91
2021/12/09 05:37:18;;;;;;;14.65;7.82;;;;;;;2.55;73.94;98292.63;5394374;26;33503;-91
2021/12/09 05:39:48;;;;;;;22.30;8.27;;;;;;;2.11;75.44;98282.97;5374825;26;33972;-93
2021/12/09 05:42:18;;;;;;;19.17;9.65;;;;;;;2.20;75.54;98268.47;5355242;26;35072;-90
2021/12/09 05:44:51;;;;;;;16.98;8.35;;;;;;;2.04;76.25;98282.94;5373612;26;34815;-93
2021/12/09 05:47:19;;;;;;;23.50;9.27;;;;;;;2.60;74.17;98257.53;5392559;26;33529;-94
2021/12/09 05:49:48;;;;;;;21.25;9.90;;;;;;;2.58;73.64;98256.69;5390271;26;34501;-96
2021/12/09 05:52:21;;;;;;;23.87;9.10;;;;;;;2.24;74.79;98257.38;5391949;26;34986;-96
2021/12/09 05:54:49;;;;;;;19.95;9.40;;;;;;;2.59;73.93;98246.38;5393175;26;34878;-94
2021/12/09 05:57:41;;;;;;;21.80;9.23;;;;;;;2.38;73.89;98247.19;5341093;26;32651;-96
2021/12/09 06:00:31;;;;;;;17.40;8.82;;;;;;;2.13;75.74;98243.59;5375531;26;33692;-94
2021/12/09 06:02:59;;;;;;;20.55;8.57;;;;;;;2.50;73.74;98242.94;5372093;26;35436;-94
2021/12/09 06:05:28;;;;;;;18.05;8.35;;;;;;;1.94;75.29;98232.41;5352319;26;34191;-94
2021/12/09 06:07:56;;;;;;;22.52;9.60;;;;;;;2.27;75.13;98247.09;5393021;26;33707;-94
2021/12/09 06:10:24;;;;;;;22.92;10.85;;;;;;;2.05;75.77;98243.59;5358744;26;33961;-95
2021/12/09 06:12:52;;;;;;;26.40;11.30;;;;;;;2.07;75.77;98243.59;5396458;26;34952;-96
2021/12/09 06:15:22;;;;;;;25.83;10.57;;;;;;;1.87;76.66;98246.03;5356044;26;34777;-94
2021/12/09 06:17:50;;;;;;;21.20;9.93;;;;;;;2.06;76.11;98235.00;5396734;26;33677;-94
2021/12/09 06:20:18;;;;;;;21.62;10.77;;;;;;;2.36;74.84;98230.03;5371764;26;34680;-94
2021/12/09 06:22:46;;;;;;;25.27;11.95;;;;;;;2.33;75.57;98235.13;5390500;26;35228;-94
2021/12/09 06:25:18;;;;;;;22.37;11.35;;;;;;;2.22;76.36;98222.25;5390783;26;34074;-95
2021/12/09 06:27:48;;;;;;;18.45;9.30;;;;;;;2.00;76.98;98222.16;5390003;26;34330;-94
2021/12/09 06:30:18;;;;;;;18.85;10.00;;;;;;;2.12;77.13;98231.63;5371494;26;34122;-95
2021/12/09 06:32:49;;;;;;;27.10;11.48;;;;;;;2.13;76.84;98212.78;5390737;26;35776;-93
2021/12/09 06:35:20;;;;;;;23.87;10.98;;;;;;;1.74;78.39;98213.44;5389599;26;34514;-93
2021/12/09 06:37:48;;;;;;;20.98;10.55;;;;;;;2.20;76.88;98224.81;5391886;26;33491;-93
2021/12/09 06:40:19;;;;;;;23.35;13.60;;;;;;;1.89;77.47;98209.25;5370495;26;32684;-94
2021/12/09 06:42:49;;;;;;;14.50;8.07;;;;;;;2.06;77.51;98222.16;5391574;26;34867;-95
2021/12/09 06:45:19;;;;;;;19.40;9.75;;;;;;;1.63;78.32;98216.78;5352544;26;33109;-94
2021/12/09 06:47:48;;;;;;;24.25;11.90;;;;;;;1.67;78.64;98236.47;5352652;26;32910;-94
2021/12/09 06:50:22;;;;;;;27.02;13.07;;;;;;;1.88;78.15;98240.91;5354968;26;33052;-93
2021/12/09 06:52:56;;;;;;;32.05;13.27;;;;;;;2.19;77.09;98242.78;5392320;26;35443;-95
2021/12/09 06:56:12;;;;;;;26.20;9.90;;;;;;;2.15;77.12;98238.47;5321149;26;20123;-72
2021/12/09 06:58:46;;;;;;;23.67;11.07;;;;;;;2.13;77.02;98243.59;5366391;26;33317;-74
2021/12/09 07:01:15;;;;;;;25.35;11.98;;;;;;;2.31;76.64;98247.13;5345233;26;32868;-74
2021/12/09 07:03:45;;;;;;;26.45;11.98;;;;;;;2.06;77.12;98247.84;5347320;26;35777;-74
2021/12/09 07:06:13;;;;;;;16.00;9.52;;;;;;;1.90;77.71;98251.19;5346074;26;33614;-80
2021/12/09 07:08:47;;;;;;;26.70;12.75;;;;;;;2.16;76.76;98247.91;5366257;26;33421;-73
2021/12/09 07:11:19;;;;;;;23.35;10.50;;;;;;;1.70;78.82;98246.78;5365012;26;34683;-75
2021/12/09 07:13:48;;;;;;;18.17;10.50;;;;;;;2.08;77.09;98245.28;5347257;26;35160;-80
2021/12/09 07:16:18;;;;;;;26.17;11.43;;;;;;;2.07;76.98;98259.00;5366700;26;35003;-79
2021/12/09 07:18:46;;;;;;;21.23;11.23;;;;;;;2.07;77.49;98262.41;5365255;26;33570;-79
2021/12/09 07:21:15;;;;;;;24.08;10.07;;;;;;;2.11;77.78;98247.03;5347381;26;33817;-79
2021/12/09 07:23:44;;;;;;;24.08;12.07;;;;;;;2.07;77.47;98253.88;5367710;26;35028;-79
2021/12/09 07:26:13;;;;;;;20.52;10.65;;;;;;;1.69;78.77;98241.63;5365681;26;34375;-79
2021/12/09 07:28:41;;;;;;;23.02;11.48;;;;;;;1.73;79.27;98234.81;5347488;26;32799;-75
2021/12/09 07:31:10;;;;;;;27.20;12.35;;;;;;;2.01;78.38;98238.41;5364909;26;33960;-77
2021/12/09 07:33:38;;;;;;;23.30;11.35;;;;;;;2.11;77.58;98229.06;5366273;26;35087;-75
2021/12/09 07:36:07;;;;;;;20.70;10.88;;;;;;;2.03;77.41;98222.19;5367145;26;34596;-74
2021/12/09 07:38:36;;;;;;;21.20;9.75;;;;;;;2.14;76.99;98229.09;5367701;26;33627;-74
2021/12/09 07:41:05;;;;;;;18.73;10.10;;;;;;;1.82;77.95;98232.31;5367124;26;33938;-74
2021/12/09 07:43:33;;;;;;;14.73;8.20;;;;;;;2.02;77.75;98220.44;5367086;26;35137;-75
2021/12/09 07:46:02;;;;;;;27.65;11.40;;;;;;;1.91;78.30;98222.09;5366650;26;34562;-74
2021/12/09 07:48:31;;;;;;;20.80;10.25;;;;;;;1.48;80.49;98222.69;5366116;26;34371;-76
2021/12/09 07:50:59;;;;;;;23.42;9.27;;;;;;;1.60;79.82;98213.34;5328976;26;34827;-81
2021/12/09 07:53:28;;;;;;;23.12;7.78;;;;;;;1.67;79.47;98213.38;5367577;26;35930;-80
2021/12/09 07:55:56;;;;;;;24.30;9.98;;;;;;;1.68;79.87;98215.13;5366832;26;34534;-80
2021/12/09 07:58:24;;;;;;;20.80;9.73;;;;;;;1.18;82.25;98213.03;5367551;26;33619;-81
2021/12/09 08:00:53;;;;;;;17.30;8.82;;;;;;;1.53;81.09;98202.19;5366880;26;34790;-80
2021/12/09 08:03:22;;;;;;;20.10;7.90;;;;;;;1.66;79.78;98188.59;5365729;26;35918;-75
2021/12/09 08:05:50;;;;;;;27.65;11.23;;;;;;;1.44;80.49;98191.88;5367026;26;34486;-79
2021/12/09 08:08:18;;;;;;;18.48;9.45;;;;;;;1.76;80.10;98191.22;5367679;26;33651;-80
2021/12/09 08:10:47;;;;;;;26.58;10.05;;;;;;;2.01;78.57;98187.94;5365606;26;34589;-79
2021/12/09 08:13:15;;;;;;;17.83;9.13;;;;;;;1.87;78.92;98189.56;5367438;26;35907;-79
2021/12/09 08:15:49;;;;;;;27.65;9.57;;;;;;;1.75;79.28;98210.87;5366904;26;34457;-80
2021/12/09 08:20:50;;;;;;;16.90;9.38;;;;;;;1.90;78.80;98204.97;5366846;26;33956;-79
2021/12/09 08:23:19;;;;;;;18.70;9.40;;;;;;;1.60;79.39;98205.66;5367943;26;34373;-75
2021/12/09 08:25:48;;;;;;;18.48;7.95;;;;;;;1.93;78.18;98205.00;5347256;26;34606;-80
2021/12/09 08:28:16;;;;;;;17.00;9.07;;;;;;;1.84;78.39;98200.66;5367261;26;33628;-75
2021/12/09 08:30:46;;;;;;;21.70;9.40;;;;;;;1.61;79.43;98197.97;5366944;26;34907;-78
2021/12/09 08:33:20;;;;;;;17.48;10.55;;;;;;;1.62;79.44;98181.72;5367476;26;35124;-79
2021/12/09 08:35:50;;;;;;;28.52;10.80;;;;;;;1.81;78.98;98184.41;5347335;26;34586;-79
2021/12/09 08:38:19;;;;;;;24.00;10.50;;;;;;;1.70;79.31;98182.62;5348105;26;34295;-79
2021/12/09 08:40:48;;;;;;;17.02;9.73;;;;;;;1.75;79.42;98174.09;5346466;26;33808;-79
2021/12/09 08:43:18;;;;;;;25.77;9.32;;;;;;;2.07;77.85;98177.69;5367599;26;35124;-79
2021/12/09 08:45:47;;;;;;;24.02;10.23;;;;;;;1.92;78.28;98182.72;5347025;26;34471;-77
2021/12/09 08:48:16;;;;;;;15.48;6.82;;;;;;;1.94;78.34;98190.44;5366936;26;33619;-76
2021/12/09 08:50:44;;;;;;;15.63;8.15;;;;;;;1.87;78.46;98169.91;5367294;26;34046;-77
2021/12/09 08:53:16;;;;;;;15.07;8.07;;;;;;;2.04;78.20;98171.69;5347576;26;35085;-78
2021/12/09 08:55:45;;;;;;;23.80;10.18;;;;;;;2.24;76.96;98185.47;5347127;26;34469;-77
2021/12/09 08:58:14;;;;;;;19.27;9.35;;;;;;;2.49;76.35;98179.53;5366254;26;34460;-78
2021/12/09 09:00:44;;;;;;;16.50;7.62;;;;;;;2.40;76.43;98181.25;5365331;26;34074;-78
2021/12/09 09:03:14;;;;;;;24.23;9.95;;;;;;;2.02;77.98;98184.50;5366034;26;36049;-78
2021/12/09 09:05:42;;;;;;;14.48;8.00;;;;;;;1.79;79.40;98175.84;5366809;26;34551;-77
2021/12/09 09:08:11;;;;;;;17.65;8.30;;;;;;;1.98;77.89;98182.78;5367436;26;34349;-80
2021/12/09 09:10:42;;;;;;;21.45;9.65;;;;;;;1.92;78.80;98181.88;5366674;26;34805;-76
2021/12/09 09:13:12;;;;;;;21.35;10.45;;;;;;;2.07;78.49;98190.53;5347644;26;35136;-77
2021/12/09 09:15:41;;;;;;;25.20;10.02;;;;;;;2.12;78.52;98179.41;5366744;26;33642;-77
2021/12/09 09:18:10;;;;;;;20.42;9.10;;;;;;;2.08;77.55;98189.69;5367426;26;34397;-78
2021/12/09 09:20:39;;;;;;;18.87;7.75;;;;;;;2.24;77.14;98189.72;5366607;26;34616;-77
2021/12/09 09:23:11;;;;;;;23.38;10.25;;;;;;;2.04;78.58;98187.94;5347243;26;35127;-77
2021/12/09 09:25:40;;;;;;;21.52;11.05;;;;;;;1.93;79.27;98187.03;5366753;26;33736;-78
2021/12/09 09:28:09;;;;;;;21.55;8.82;;;;;;;2.08;79.15;98184.53;5367305;26;33541;-77
2021/12/09 09:30:43;;;;;;;24.50;9.90;;;;;;;2.12;79.18;98185.41;5366292;26;34797;-77
2021/12/09 09:33:14;;;;;;;20.52;9.45;;;;;;;1.82;80.27;98170.72;5346818;26;35127;-76
2021/12/09 09:35:43;;;;;;;22.80;10.13;;;;;;;1.96;79.87;98174.22;5366818;26;35268;-77
2021/12/09 09:38:14;;;;;;;16.40;8.85;;;;;;;2.04;79.20;98156.28;5329544;26;34446;-76
2021/12/09 09:40:49;;;;;;;21.10;9.73;;;;;;;1.82;80.35;98157.91;5365311;26;34791;-76
2021/12/09 09:43:42;;;;;;;19.10;8.73;;;;;;;2.28;79.07;98146.09;5365920;26;35185;-76
2021/12/09 09:46:17;;;;;;;13.13;8.38;;;;;;;2.42;77.91;98138.44;5350780;26;34576;-77
2021/12/09 09:48:47;;;;;;;21.37;9.07;;;;;;;2.31;78.88;98124.69;5347572;26;33667;-77
2021/12/09 09:51:17;;;;;;;16.65;9.18;;;;;;;2.39;78.90;98117.00;5366473;26;33912;-76
2021/12/09 09:53:45;;;;;;;15.32;8.38;;;;;;;2.44;78.00;98123.03;5365771;26;36012;-76
2021/12/09 09:56:18;;;;;;;19.33;9.25;;;;;;;2.40;78.33;98127.28;5366417;26;34576;-76
2021/12/09 09:58:49;;;;;;;17.23;8.55;;;;;;;2.28;78.73;98114.41;5366846;26;34431;-77
2021/12/09 10:01:18;;;;;;;17.50;9.25;;;;;;;2.34;78.49;98109.28;5366957;26;33960;-79
2021/12/09 10:03:48;;;;;;;14.85;8.30;;;;;;;2.73;77.56;98105.06;5365685;26;35781;-78
2021/12/09 10:06:17;;;;;;;23.67;9.25;;;;;;;2.52;78.09;98097.31;5366942;26;34488;-79
2021/12/09 10:08:46;;;;;;;18.27;9.43;;;;;;;2.18;79.50;98098.13;5367199;26;33404;-78
2021/12/09 10:11:14;;;;;;;21.15;9.40;;;;;;;2.58;78.83;98112.78;5365173;26;34700;-77
2021/12/09 10:13:44;;;;;;;20.67;8.95;;;;;;;3.03;77.52;98106.75;5365749;26;34911;-78
2021/12/09 10:16:21;;;;;;;21.62;9.10;;;;;;;2.65;76.44;98099.06;5364710;26;33599;-77
2021/12/09 10:18:50;;;;;;;;;;;;;;;2.92;76.91;98090.50;5367629;26;33519;-78
2021/12/09 10:21:28;;;;;;;22.05;8.70;;;;;;;2.72;77.18;98082.78;5366564;26;34255;-76
2021/12/09 10:24:05;;;;;;;19.40;8.90;;;;;;;2.65;77.63;98094.78;5366687;26;35878;-75
2021/12/09 10:26:41;;;;;;;16.02;8.75;;;;;;;2.64;77.44;98081.91;5365135;26;35136;-76
2021/12/09 10:29:26;;;;;;;24.45;8.38;;;;;;;3.07;76.41;98073.34;5347388;26;33719;-75
2021/12/09 10:31:57;;;;;;;21.55;8.82;;;;;;;3.09;75.75;98076.75;5366708;26;33934;-78
2021/12/09 10:34:40;;;;;;;18.08;8.95;;;;;;;2.39;78.22;98084.47;5328794;26;34230;-75
2021/12/09 10:37:27;;;;;;;19.73;10.77;;;;;;;2.95;77.06;98105.94;5363948;26;35311;-76
2021/12/09 10:40:07;;;;;;;25.10;9.48;;;;;;;2.85;76.93;98099.91;5366336;26;33750;-75
2021/12/09 10:42:47;;;;;;;23.05;10.10;;;;;;;3.10;76.28;98099.06;5365612;26;34135;-79
2021/12/09 10:45:28;;;;;;;21.77;9.27;;;;;;;2.69;77.63;98105.91;5366312;26;34799;-79
2021/12/09 10:56:02;;;;;;;22.35;8.98;;;;;;;2.88;77.64;98075.06;5366038;26;34917;-79
2021/12/09 10:58:32;;;;;;;;;;;;;;;2.69;78.35;98084.50;5365418;26;35377;-79
2021/12/09 11:01:02;;;;;;;20.05;9.00;;;;;;;3.00;77.32;98085.34;5364972;26;33366;-79
2021/12/09 11:03:34;;;;;;;22.17;9.68;;;;;;;2.07;81.11;98092.94;5366997;26;33127;-78
2021/12/09 11:06:07;;;;;;;14.90;7.43;;;;;;;2.44;80.48;98094.75;5366285;26;35977;-79
2021/12/09 11:09:08;;;;;;;22.85;10.38;;;;;;;2.49;79.86;98092.19;5366774;26;34608;-78
2021/12/09 11:11:42;;;;;;;16.95;8.40;;;;;;;2.37;80.26;98086.19;5327290;26;33557;-79
2021/12/09 11:14:14;;;;;;;19.73;9.88;;;;;;;2.31;80.50;98078.44;5366898;26;33998;-82
2021/12/09 11:16:45;;;;;;;35.33;10.63;;;;;;;2.64;79.40;98082.78;5364999;26;34980;-78
2021/12/09 11:19:38;;;;;;;19.00;8.52;;;;;;;2.06;82.23;98078.38;5366177;26;34617;-76
2021/12/09 11:22:09;;;;;;;19.83;9.02;;;;;;;2.70;79.75;98071.66;5345557;26;33169;-79
2021/12/09 11:24:42;;;;;;;22.25;8.40;;;;;;;2.70;78.96;98048.53;5346417;26;33949;-77
2021/12/09 11:27:21;;;;;;;21.37;8.70;;;;;;;2.20;81.53;98059.59;5345910;26;34187;-78
2021/12/09 11:29:54;;;;;;;17.70;10.13;;;;;;;2.52;81.22;98045.94;5365987;26;34500;-78
2021/12/09 11:35:21;;;;;;;19.80;9.73;;;;;;;2.24;81.48;98045.91;5365566;26;34793;-78
2021/12/09 11:40:47;;;;;;;14.45;8.38;;;;;;;2.11;81.64;98049.31;5364503;26;35350;-78
2021/12/09 11:43:24;;;;;;;19.00;9.10;;;;;;;2.51;80.78;98046.81;5366319;26;34329;-76
2021/12/09 11:45:57;;;;;;;22.77;8.85;;;;;;;2.53;80.72;98047.66;5365670;26;33532;-78
2021/12/09 11:48:27;;;;;;;17.20;8.80;;;;;;;2.61;80.64;98033.97;5366277;26;35038;-79
2021/12/09 11:50:55;;;;;;;20.10;7.30;;;;;;;2.92;79.23;98036.50;5346206;26;34481;-78
2021/12/09 11:53:26;;;;;;;22.85;10.07;;;;;;;2.53;80.07;98032.25;5366371;26;34444;-79
2021/12/09 11:56:09;;;;;;;18.50;8.82;;;;;;;2.32;82.31;98023.66;5346200;26;34003;-78
2021/12/09 11:58:55;;;;;;;22.83;9.95;;;;;;;2.68;80.69;98016.81;5363547;26;34808;-78
2021/12/09 12:11:29;;;;;;;18.77;8.90;;;;;;;3.02;79.43;98021.94;5343531;26;35796;-78